createdAt,value
2017-10-16T00:00:18.400Z,0.00
2017-10-16T00:01:18.463Z,0.00
2017-10-16T00:03:11.478Z,0.00
2017-10-16T00:04:11.521Z,0.00
2017-10-16T00:06:04.515Z,0.00
2017-10-16T00:07:04.580Z,0.00
2017-10-16T00:08:57.592Z,0.00
2017-10-16T00:09:57.635Z,0.00
2017-10-16T00:11:50.649Z,0.00
2017-10-16T00:12:50.692Z,0.00
2017-10-16T00:14:43.684Z,0.00
2017-10-16T00:15:43.746Z,0.00
2017-10-16T00:17:36.763Z,0.00
2017-10-16T00:18:36.803Z,0.00
2017-10-16T00:20:29.792Z,0.00
2017-10-16T00:21:29.853Z,0.00
2017-10-16T00:23:22.862Z,0.00
2017-10-16T00:24:22.906Z,0.00
2017-10-16T00:26:15.890Z,0.00
2017-10-16T00:27:15.952Z,0.00
2017-10-16T00:29:08.962Z,0.00
2017-10-16T00:30:09.001Z,0.00
2017-10-16T00:32:02.010Z,0.00
2017-10-16T00:33:02.052Z,0.00
2017-10-16T00:34:55.041Z,0.00
2017-10-16T00:35:55.102Z,0.00
2017-10-16T00:37:48.110Z,0.00
2017-10-16T00:38:48.153Z,0.00
2017-10-16T00:40:41.138Z,0.00
2017-10-16T00:41:41.199Z,0.00
2017-10-16T00:43:34.207Z,0.00
2017-10-16T00:44:34.247Z,0.00
2017-10-16T00:46:27.238Z,0.00
2017-10-16T00:47:27.296Z,0.00
2017-10-16T00:49:20.304Z,0.00
2017-10-16T00:50:20.343Z,0.00
2017-10-16T00:52:13.350Z,0.00
2017-10-16T00:53:13.391Z,0.00
2017-10-16T00:55:06.384Z,0.00
2017-10-16T00:56:06.448Z,0.00
2017-10-16T00:57:59.460Z,0.00
2017-10-16T00:58:59.502Z,0.00
2017-10-16T01:00:52.496Z,0.00
2017-10-16T01:01:52.558Z,0.00
2017-10-16T01:03:45.567Z,0.00
2017-10-16T01:04:45.607Z,0.00
2017-10-16T01:06:38.597Z,0.00
2017-10-16T01:07:38.655Z,0.00
2017-10-16T01:09:31.664Z,0.00
2017-10-16T01:10:31.704Z,0.00
2017-10-16T01:12:24.718Z,0.00
2017-10-16T01:13:24.755Z,0.00
2017-10-16T01:15:17.745Z,0.00
2017-10-16T01:16:17.802Z,0.00
2017-10-16T01:18:10.811Z,0.00
2017-10-16T01:19:10.852Z,0.00
2017-10-16T01:21:03.840Z,0.00
2017-10-16T01:22:03.900Z,0.00
2017-10-16T01:23:56.908Z,0.00
2017-10-16T01:24:56.944Z,0.00
2017-10-16T01:26:49.933Z,0.00
2017-10-16T01:27:49.994Z,0.00
2017-10-16T01:29:43.001Z,0.00
2017-10-16T01:30:43.042Z,0.00
2017-10-16T01:32:36.054Z,0.00
2017-10-16T01:33:36.095Z,0.00
2017-10-16T01:35:29.085Z,0.00
2017-10-16T01:36:29.142Z,0.00
2017-10-16T01:38:22.154Z,0.00
2017-10-16T01:39:22.196Z,0.00
2017-10-16T01:41:15.185Z,0.00
2017-10-16T01:42:15.244Z,0.00
2017-10-16T01:44:08.257Z,0.00
2017-10-16T01:45:08.297Z,0.00
2017-10-16T01:47:01.287Z,0.00
2017-10-16T01:48:01.346Z,0.00
2017-10-16T01:49:54.354Z,0.00
2017-10-16T01:50:54.394Z,0.00
2017-10-16T01:52:47.414Z,0.00
2017-10-16T01:53:47.443Z,0.00
2017-10-16T01:55:40.432Z,0.00
2017-10-16T01:56:40.493Z,0.00
2017-10-16T01:58:33.504Z,0.00
2017-10-16T01:59:33.546Z,0.00
2017-10-16T02:01:26.535Z,0.00
2017-10-16T02:02:26.594Z,0.00
2017-10-16T02:04:19.603Z,0.00
2017-10-16T02:05:19.643Z,0.00
2017-10-16T02:07:12.631Z,0.00
2017-10-16T02:08:12.722Z,0.00
2017-10-16T02:10:05.698Z,0.00
2017-10-16T02:11:05.738Z,0.00
2017-10-16T02:12:58.744Z,0.00
2017-10-16T02:13:58.784Z,0.00
2017-10-16T02:15:51.773Z,0.00
2017-10-16T02:16:51.834Z,0.00
2017-10-16T02:18:44.845Z,0.00
2017-10-16T02:19:44.887Z,0.00
2017-10-16T02:21:37.878Z,0.00
2017-10-16T02:22:37.935Z,0.00
2017-10-16T02:24:30.941Z,0.00
2017-10-16T02:25:30.981Z,0.00
2017-10-16T02:27:23.975Z,0.00
2017-10-16T02:28:24.033Z,0.00
2017-10-16T02:30:17.035Z,0.00
2017-10-16T02:31:17.074Z,0.00
2017-10-16T02:33:10.083Z,0.00
2017-10-16T02:34:10.122Z,0.00
2017-10-16T02:36:03.115Z,0.00
2017-10-16T02:37:03.177Z,0.00
2017-10-16T02:38:56.184Z,0.00
2017-10-16T02:39:56.222Z,0.00
2017-10-16T02:41:49.212Z,0.00
2017-10-16T02:42:49.268Z,0.00
2017-10-16T02:44:42.276Z,0.00
2017-10-16T02:45:42.316Z,0.00
2017-10-16T02:47:35.309Z,0.00
2017-10-16T02:48:35.365Z,0.00
2017-10-16T02:50:28.371Z,0.00
2017-10-16T02:51:28.412Z,0.00
2017-10-16T02:53:21.421Z,0.00
2017-10-16T02:54:21.461Z,0.00
2017-10-16T02:56:14.448Z,0.00
2017-10-16T02:57:14.509Z,0.00
2017-10-16T02:59:07.514Z,0.00
2017-10-16T03:00:07.555Z,0.00
2017-10-16T03:02:00.544Z,0.00
2017-10-16T03:03:00.603Z,0.00
2017-10-16T03:04:53.611Z,0.00
2017-10-16T03:05:53.650Z,0.00
2017-10-16T03:07:46.642Z,0.00
2017-10-16T03:08:46.697Z,0.00
2017-10-16T03:10:39.705Z,0.00
2017-10-16T03:11:39.743Z,0.00
2017-10-16T03:13:32.749Z,0.00
2017-10-16T03:14:32.790Z,0.00
2017-10-16T03:16:25.779Z,0.00
2017-10-16T03:17:25.837Z,0.00
2017-10-16T03:19:18.846Z,0.00
2017-10-16T03:20:18.891Z,0.00
2017-10-16T03:22:11.875Z,0.00
2017-10-16T03:23:11.932Z,0.00
2017-10-16T03:25:04.940Z,0.00
2017-10-16T03:26:04.980Z,0.00
2017-10-16T03:27:57.968Z,0.00
2017-10-16T03:28:58.026Z,0.00
2017-10-16T03:30:51.033Z,0.00
2017-10-16T03:31:51.072Z,0.00
2017-10-16T03:33:44.077Z,0.00
2017-10-16T03:34:44.117Z,0.00
2017-10-16T03:36:37.102Z,0.00
2017-10-16T03:37:37.164Z,0.00
2017-10-16T03:39:30.170Z,0.00
2017-10-16T03:40:30.210Z,0.00
2017-10-16T03:42:23.198Z,0.00
2017-10-16T03:43:23.255Z,0.00
2017-10-16T03:45:16.268Z,0.00
2017-10-16T03:46:16.309Z,0.00
2017-10-16T03:48:09.318Z,0.00
2017-10-16T03:49:09.368Z,0.00
2017-10-16T03:51:14.009Z,0.00
2017-10-16T03:52:14.060Z,0.00
2017-10-16T03:54:07.057Z,0.00
2017-10-16T03:55:07.099Z,0.00
2017-10-16T03:57:00.111Z,0.00
2017-10-16T03:58:00.173Z,0.00
2017-10-16T03:59:53.181Z,0.00
2017-10-16T04:00:53.221Z,0.00
2017-10-16T04:02:46.209Z,0.00
2017-10-16T04:03:46.268Z,0.00
2017-10-16T04:05:39.278Z,0.00
2017-10-16T04:06:39.316Z,0.00
2017-10-16T04:08:32.303Z,0.00
2017-10-16T04:09:32.360Z,0.00
2017-10-16T04:11:25.368Z,0.00
2017-10-16T04:12:25.406Z,0.00
2017-10-16T04:14:18.413Z,0.00
2017-10-16T04:15:18.452Z,0.00
2017-10-16T04:17:11.441Z,0.00
2017-10-16T04:18:11.502Z,0.00
2017-10-16T04:20:04.507Z,0.00
2017-10-16T04:21:04.548Z,0.00
2017-10-16T04:22:57.536Z,0.00
2017-10-16T04:23:57.592Z,0.00
2017-10-16T04:25:50.601Z,0.00
2017-10-16T04:26:50.643Z,0.00
2017-10-16T04:28:43.628Z,0.00
2017-10-16T04:29:43.685Z,0.00
2017-10-16T04:31:36.693Z,0.00
2017-10-16T04:32:36.730Z,0.00
2017-10-16T04:34:29.740Z,0.00
2017-10-16T04:35:29.778Z,0.00
2017-10-16T04:37:22.767Z,0.00
2017-10-16T04:38:22.825Z,0.00
2017-10-16T04:40:15.829Z,0.00
2017-10-16T04:41:15.870Z,0.00
2017-10-16T04:43:08.869Z,0.00
2017-10-16T04:44:08.929Z,0.00
2017-10-16T04:46:01.942Z,0.00
2017-10-16T04:47:01.984Z,0.00
2017-10-16T04:48:54.976Z,0.00
2017-10-16T04:49:55.042Z,0.00
2017-10-16T04:51:48.548Z,0.00
2017-10-16T04:52:48.588Z,0.00
2017-10-16T04:54:41.603Z,0.00
2017-10-16T04:55:41.638Z,0.00
2017-10-16T04:57:34.633Z,0.00
2017-10-16T04:58:34.696Z,0.00
2017-10-16T05:00:27.718Z,0.00
2017-10-16T05:01:27.759Z,0.00
2017-10-16T05:03:20.787Z,0.00
2017-10-16T05:04:20.849Z,0.00
2017-10-16T05:06:13.856Z,0.00
2017-10-16T05:07:13.896Z,0.00
2017-10-16T05:09:18.539Z,0.00
2017-10-16T05:10:18.597Z,0.00
2017-10-16T05:12:11.683Z,0.00
2017-10-16T05:13:11.710Z,0.00
2017-10-16T05:15:19.190Z,0.00
2017-10-16T05:16:27.490Z,0.00
2017-10-16T05:18:51.477Z,0.00
2017-10-16T05:19:51.542Z,0.00
2017-10-16T05:21:44.543Z,0.00
2017-10-16T05:22:44.584Z,4.00
2017-10-16T05:24:37.576Z,0.00
2017-10-16T05:25:37.632Z,4.00
2017-10-16T05:27:30.839Z,4.00
2017-10-16T05:28:30.880Z,4.00
2017-10-16T05:30:24.920Z,4.00
2017-10-16T05:31:24.959Z,8.00
2017-10-16T05:33:17.952Z,12.00
2017-10-16T05:34:18.015Z,12.00
2017-10-16T05:36:11.032Z,16.00
2017-10-16T05:37:11.073Z,24.00
2017-10-16T05:39:04.056Z,28.00
2017-10-16T05:40:04.117Z,36.00
2017-10-16T05:41:57.139Z,44.00
2017-10-16T05:42:57.178Z,52.00
2017-10-16T05:44:50.169Z,72.00
2017-10-16T05:45:50.228Z,80.00
2017-10-16T05:47:43.244Z,104.00
2017-10-16T05:48:43.285Z,116.00
2017-10-16T05:50:36.347Z,144.00
2017-10-16T05:51:36.388Z,160.00
2017-10-16T05:53:29.410Z,192.00
2017-10-16T05:54:29.471Z,212.00
2017-10-16T05:56:22.480Z,252.00
2017-10-16T05:57:22.522Z,276.00
2017-10-16T05:59:15.523Z,324.00
2017-10-16T06:00:15.582Z,356.00
2017-10-16T06:02:08.592Z,408.00
2017-10-16T06:03:08.631Z,440.00
2017-10-16T06:05:01.642Z,504.00
2017-10-16T06:06:01.698Z,540.00
2017-10-16T06:07:54.722Z,616.00
2017-10-16T06:08:54.763Z,656.00
2017-10-16T06:10:47.773Z,728.00
2017-10-16T06:11:47.814Z,768.00
2017-10-16T06:13:40.804Z,844.00
2017-10-16T06:14:40.865Z,888.00
2017-10-16T06:16:33.931Z,972.00
2017-10-16T06:17:33.913Z,1016.00
2017-10-16T06:19:26.960Z,1108.00
2017-10-16T06:20:27.018Z,1164.00
2017-10-16T06:22:20.027Z,1272.00
2017-10-16T06:23:20.067Z,1328.00
2017-10-16T06:25:13.055Z,1452.00
2017-10-16T06:26:13.116Z,1520.00
2017-10-16T06:28:06.121Z,1668.00
2017-10-16T06:29:06.161Z,1756.00
2017-10-16T06:30:59.167Z,1880.00
2017-10-16T06:31:59.207Z,1940.00
2017-10-16T06:33:52.196Z,2052.00
2017-10-16T06:34:52.253Z,2104.00
2017-10-16T06:36:45.263Z,2200.00
2017-10-16T06:37:45.303Z,2248.00
2017-10-16T06:39:38.490Z,2348.00
2017-10-16T06:40:38.554Z,2408.00
2017-10-16T06:42:31.573Z,2532.00
2017-10-16T06:43:31.605Z,2584.00
2017-10-16T06:45:24.597Z,2680.00
2017-10-16T06:46:24.659Z,2728.00
2017-10-16T06:48:17.664Z,2828.00
2017-10-16T06:49:17.708Z,2892.00
2017-10-16T06:51:10.725Z,3036.00
2017-10-16T06:52:10.759Z,3128.00
2017-10-16T06:54:03.765Z,3292.00
2017-10-16T06:55:03.827Z,3384.00
2017-10-16T06:57:08.468Z,3624.00
2017-10-16T06:58:08.524Z,3776.00
2017-10-16T07:00:13.166Z,4140.00
2017-10-16T07:01:13.223Z,4320.00
2017-10-16T07:03:06.245Z,4652.00
2017-10-16T07:04:06.283Z,4832.00
2017-10-16T07:05:59.298Z,5156.00
2017-10-16T07:06:59.339Z,5272.00
2017-10-16T07:08:52.333Z,5460.00
2017-10-16T07:09:52.391Z,5596.00
2017-10-16T07:11:45.403Z,5884.00
2017-10-16T07:12:45.444Z,6036.00
2017-10-16T07:14:38.448Z,6316.00
2017-10-16T07:15:38.512Z,6460.00
2017-10-16T07:17:31.524Z,6812.00
2017-10-16T07:18:31.564Z,7092.00
2017-10-16T07:20:24.561Z,7996.00
2017-10-16T07:21:24.625Z,8652.00
2017-10-16T07:23:17.638Z,8516.00
2017-10-16T07:24:17.682Z,8408.00
2017-10-16T07:26:10.703Z,8328.00
2017-10-16T07:27:10.745Z,8372.00
2017-10-16T07:29:03.748Z,8456.00
2017-10-16T07:30:03.811Z,8412.00
2017-10-16T07:31:56.828Z,8280.00
2017-10-16T07:32:56.872Z,8284.00
2017-10-16T07:34:49.869Z,8268.00
2017-10-16T07:35:49.933Z,8340.00
2017-10-16T07:37:42.948Z,8396.00
2017-10-16T07:38:42.993Z,8464.00
2017-10-16T07:40:35.988Z,8616.00
2017-10-16T07:41:36.052Z,8660.00
2017-10-16T07:43:29.068Z,8960.00
2017-10-16T07:44:29.109Z,9044.00
2017-10-16T07:46:22.127Z,9136.00
2017-10-16T07:47:22.170Z,9120.00
2017-10-16T07:49:15.165Z,9128.00
2017-10-16T07:50:15.229Z,9140.00
2017-10-16T07:52:08.250Z,9276.00
2017-10-16T07:53:08.295Z,9400.00
2017-10-16T07:55:01.291Z,9340.00
2017-10-16T07:56:01.355Z,9292.00
2017-10-16T07:57:54.397Z,9404.00
2017-10-16T07:58:54.422Z,9380.00
2017-10-16T08:00:47.923Z,9344.00
2017-10-16T08:01:47.989Z,9440.00
2017-10-16T08:03:41.005Z,9488.00
2017-10-16T08:04:41.048Z,9512.00
2017-10-16T08:06:34.063Z,9764.00
2017-10-16T08:07:34.108Z,10096.00
2017-10-16T08:09:27.117Z,10780.00
2017-10-16T08:10:27.183Z,11144.00
2017-10-16T08:12:20.204Z,11652.00
2017-10-16T08:13:20.250Z,11904.00
2017-10-16T08:15:13.278Z,12176.00
2017-10-16T08:16:13.344Z,12228.00
2017-10-16T08:18:06.370Z,12008.00
2017-10-16T08:19:06.418Z,11724.00
2017-10-16T08:20:59.419Z,11088.00
2017-10-16T08:21:59.487Z,10672.00
2017-10-16T08:23:52.505Z,10220.00
2017-10-16T08:24:52.551Z,10048.00
2017-10-16T08:26:45.578Z,9620.00
2017-10-16T08:27:45.623Z,9104.00
2017-10-16T08:29:39.962Z,7348.00
2017-10-16T08:30:40.029Z,8176.00
2017-10-16T08:32:33.070Z,8208.00
2017-10-16T08:33:33.117Z,7688.00
2017-10-16T08:35:26.133Z,9112.00
2017-10-16T08:36:26.183Z,9020.00
2017-10-16T08:38:19.202Z,8892.00
2017-10-16T08:39:19.247Z,8856.00
2017-10-16T08:41:12.250Z,8736.00
2017-10-16T08:42:12.317Z,8516.00
2017-10-16T08:44:05.343Z,8576.00
2017-10-16T08:45:05.388Z,8560.00
2017-10-16T08:46:58.406Z,8468.00
2017-10-16T08:47:58.466Z,8428.00
2017-10-16T08:49:51.643Z,8336.00
2017-10-16T08:50:51.713Z,8304.00
2017-10-16T08:52:44.732Z,8212.00
2017-10-16T08:53:44.777Z,8196.00
2017-10-16T08:55:37.787Z,8128.00
2017-10-16T08:56:37.855Z,8048.00
2017-10-16T08:58:42.522Z,7800.00
2017-10-16T08:59:42.559Z,7708.00
2017-10-16T09:01:35.628Z,7636.00
2017-10-16T09:02:35.696Z,7560.00
2017-10-16T09:04:28.726Z,7356.00
2017-10-16T09:05:28.769Z,7212.00
2017-10-16T09:07:33.478Z,6996.00
2017-10-16T09:08:33.510Z,6940.00
2017-10-16T09:10:26.509Z,6928.00
2017-10-16T09:11:26.577Z,6908.00
2017-10-16T09:13:19.602Z,6760.00
2017-10-16T09:14:19.647Z,6664.00
2017-10-16T09:16:12.659Z,6500.00
2017-10-16T09:17:12.726Z,6440.00
2017-10-16T09:19:17.409Z,6352.00
2017-10-16T09:20:17.452Z,6320.00
2017-10-16T09:22:10.478Z,6272.00
2017-10-16T09:23:10.525Z,6244.00
2017-10-16T09:25:15.159Z,6228.00
2017-10-16T09:26:15.222Z,6204.00
2017-10-16T09:28:08.247Z,6180.00
2017-10-16T09:29:08.294Z,6176.00
2017-10-16T09:31:01.312Z,6148.00
2017-10-16T09:32:01.380Z,6120.00
2017-10-16T09:33:54.404Z,6092.00
2017-10-16T09:34:54.450Z,6092.00
2017-10-16T09:36:47.491Z,6052.00
2017-10-16T09:37:47.555Z,6020.00
2017-10-16T09:39:40.608Z,5956.00
2017-10-16T09:40:40.625Z,5932.00
2017-10-16T09:42:33.643Z,5932.00
2017-10-16T09:43:33.688Z,5928.00
2017-10-16T09:45:26.685Z,5888.00
2017-10-16T09:46:26.750Z,5876.00
2017-10-16T09:48:19.800Z,5860.00
2017-10-16T09:49:19.846Z,5852.00
2017-10-16T09:51:12.843Z,5804.00
2017-10-16T09:52:12.910Z,5772.00
2017-10-16T09:54:05.933Z,5724.00
2017-10-16T09:55:05.976Z,5696.00
2017-10-16T09:56:58.977Z,5652.00
2017-10-16T09:57:59.044Z,5628.00
2017-10-16T09:59:53.073Z,5584.00
2017-10-16T10:00:53.116Z,5556.00
2017-10-16T10:02:46.158Z,5512.00
2017-10-16T10:03:46.202Z,5492.00
2017-10-16T10:05:40.236Z,5484.00
2017-10-16T10:06:40.276Z,5480.00
2017-10-16T10:08:33.301Z,5472.00
2017-10-16T10:09:33.351Z,5460.00
2017-10-16T10:11:26.350Z,5452.00
2017-10-16T10:12:26.418Z,5436.00
2017-10-16T10:14:19.442Z,5396.00
2017-10-16T10:15:19.488Z,5388.00
2017-10-16T10:17:12.490Z,5352.00
2017-10-16T10:18:12.561Z,5332.00
2017-10-16T10:20:05.603Z,5284.00
2017-10-16T10:21:05.632Z,5256.00
2017-10-16T10:22:58.660Z,5204.00
2017-10-16T10:23:58.704Z,5192.00
2017-10-16T10:25:51.769Z,5164.00
2017-10-16T10:26:51.832Z,5148.00
2017-10-16T10:28:44.866Z,5100.00
2017-10-16T10:29:44.909Z,5080.00
2017-10-16T10:31:49.277Z,5036.00
2017-10-16T10:32:49.339Z,5012.00
2017-10-16T10:34:42.400Z,4968.00
2017-10-16T10:35:42.441Z,4940.00
2017-10-16T10:37:35.462Z,4904.00
2017-10-16T10:38:35.534Z,4880.00
2017-10-16T10:40:28.585Z,4840.00
2017-10-16T10:41:28.628Z,4816.00
2017-10-16T10:43:21.682Z,4792.00
2017-10-16T10:44:21.692Z,4784.00
2017-10-16T10:46:14.693Z,4780.00
2017-10-16T10:47:14.761Z,4772.00
2017-10-16T10:49:07.781Z,4752.00
2017-10-16T10:50:07.824Z,4744.00
2017-10-16T10:52:00.843Z,4724.00
2017-10-16T10:53:00.910Z,4704.00
2017-10-16T10:54:53.941Z,4640.00
2017-10-16T10:55:53.988Z,4604.00
2017-10-16T10:57:46.992Z,4564.00
2017-10-16T10:58:47.060Z,4548.00
2017-10-16T11:00:51.903Z,4508.00
2017-10-16T11:01:51.946Z,4484.00
2017-10-16T11:03:47.048Z,4432.00
2017-10-16T11:04:47.100Z,4412.00
2017-10-16T11:06:53.636Z,4376.00
2017-10-16T11:07:53.693Z,4368.00
2017-10-16T11:09:46.949Z,4340.00
2017-10-16T11:10:46.996Z,4332.00
2017-10-16T11:12:40.006Z,4316.00
2017-10-16T11:13:40.073Z,4304.00
2017-10-16T11:15:44.353Z,4304.00
2017-10-16T11:16:44.396Z,4324.00
2017-10-16T11:18:37.447Z,4348.00
2017-10-16T11:19:37.486Z,4364.00
2017-10-16T11:21:30.490Z,4368.00
2017-10-16T11:22:30.556Z,4364.00
2017-10-16T11:24:23.589Z,4348.00
2017-10-16T11:25:23.631Z,4416.00
2017-10-16T11:27:16.634Z,4692.00
2017-10-16T11:28:16.698Z,4856.00
2017-10-16T11:30:21.468Z,5020.00
2017-10-16T11:31:09.781Z,5008.00
2017-10-16T11:33:02.889Z,4932.00
2017-10-16T11:34:02.956Z,4956.00
2017-10-16T11:35:56.071Z,5024.00
2017-10-16T11:36:56.118Z,5032.00
2017-10-16T11:38:49.169Z,5020.00
2017-10-16T11:39:49.215Z,5012.00
2017-10-16T11:41:42.218Z,4936.00
2017-10-16T11:42:42.287Z,4872.00
2017-10-16T11:44:35.321Z,4776.00
2017-10-16T11:45:35.369Z,4764.00
2017-10-16T11:47:29.893Z,4764.00
2017-10-16T11:48:29.916Z,4784.00
2017-10-16T11:50:33.712Z,4744.00
2017-10-16T11:51:26.136Z,4720.00
2017-10-16T11:53:19.173Z,4660.00
2017-10-16T11:54:19.235Z,4584.00
2017-10-16T11:56:12.257Z,4504.00
2017-10-16T11:57:12.303Z,4468.00
2017-10-16T11:59:05.326Z,4388.00
2017-10-16T12:02:14.527Z,4240.00
2017-10-16T12:03:14.596Z,4188.00
2017-10-16T12:09:58.733Z,4024.00
2017-10-16T12:10:58.426Z,4004.00
2017-10-16T12:12:51.426Z,3964.00
2017-10-16T12:13:51.563Z,3956.00
2017-10-16T12:15:44.515Z,3932.00
2017-10-16T12:16:44.561Z,3924.00
2017-10-16T12:18:37.561Z,3892.00
2017-10-16T12:19:37.628Z,3876.00
2017-10-16T12:21:30.649Z,3860.00
2017-10-16T12:22:30.695Z,3852.00
2017-10-16T12:24:23.717Z,3836.00
2017-10-16T12:25:23.763Z,3832.00
2017-10-16T12:27:16.763Z,3816.00
2017-10-16T12:28:16.846Z,3812.00
2017-10-16T12:30:09.849Z,3800.00
2017-10-16T12:31:09.896Z,3788.00
2017-10-16T12:33:02.896Z,3780.00
2017-10-16T12:34:02.963Z,3776.00
2017-10-16T12:35:55.984Z,3760.00
2017-10-16T12:36:56.035Z,3744.00
2017-10-16T12:38:49.064Z,3732.00
2017-10-16T12:39:49.105Z,3724.00
2017-10-16T12:41:42.127Z,3704.00
2017-10-16T12:42:42.173Z,3700.00
2017-10-16T12:44:35.199Z,3688.00
2017-10-16T12:45:35.247Z,3680.00
2017-10-16T12:47:28.249Z,3668.00
2017-10-16T12:48:28.316Z,3672.00
2017-10-16T12:50:21.347Z,3688.00
2017-10-16T12:51:21.393Z,3688.00
2017-10-16T12:53:14.393Z,3696.00
2017-10-16T12:54:14.461Z,3680.00
2017-10-16T12:56:07.483Z,3648.00
2017-10-16T12:57:07.548Z,3632.00
2017-10-16T12:59:00.530Z,3604.00
2017-10-16T13:00:00.599Z,3588.00
2017-10-16T13:01:53.623Z,3568.00
2017-10-16T13:02:53.672Z,3564.00
2017-10-16T13:04:46.699Z,3544.00
2017-10-16T13:05:46.742Z,3524.00
2017-10-16T13:07:39.745Z,3492.00
2017-10-16T13:08:39.812Z,3472.00
2017-10-16T13:10:33.341Z,3460.00
2017-10-16T13:11:33.387Z,3448.00
2017-10-16T13:13:26.393Z,3424.00
2017-10-16T13:14:26.463Z,3412.00
2017-10-16T13:16:19.488Z,3392.00
2017-10-16T13:17:19.533Z,3384.00
2017-10-16T13:19:12.533Z,3368.00
2017-10-16T13:20:12.600Z,3360.00
2017-10-16T13:22:05.621Z,3348.00
2017-10-16T13:23:05.670Z,3348.00
2017-10-16T13:24:58.693Z,3344.00
2017-10-16T13:25:58.739Z,3332.00
2017-10-16T13:27:51.739Z,3316.00
2017-10-16T13:28:51.808Z,3308.00
2017-10-16T13:30:45.863Z,3292.00
2017-10-16T13:31:45.882Z,3284.00
2017-10-16T13:33:38.885Z,3264.00
2017-10-16T13:34:38.952Z,3256.00
2017-10-16T13:36:31.980Z,3236.00
2017-10-16T13:37:32.033Z,3228.00
2017-10-16T13:39:25.039Z,3216.00
2017-10-16T13:40:25.097Z,3216.00
2017-10-16T13:42:18.117Z,3208.00
2017-10-16T13:43:18.165Z,3204.00
2017-10-16T13:45:11.188Z,3192.00
2017-10-16T13:46:11.243Z,3184.00
2017-10-16T13:48:15.497Z,3176.00
2017-10-16T13:49:15.551Z,3184.00
2017-10-16T13:51:08.554Z,3240.00
2017-10-16T13:52:08.601Z,3268.00
2017-10-16T13:54:01.604Z,3328.00
2017-10-16T13:55:01.672Z,3352.00
2017-10-16T13:56:54.701Z,3344.00
2017-10-16T13:57:54.740Z,3292.00
2017-10-16T13:59:47.764Z,3156.00
2017-10-16T14:00:47.810Z,3104.00
2017-10-16T14:02:40.816Z,3044.00
2017-10-16T14:03:40.885Z,3024.00
2017-10-16T14:05:33.913Z,2988.00
2017-10-16T14:06:33.962Z,2968.00
2017-10-16T14:08:26.962Z,2936.00
2017-10-16T14:09:27.030Z,2916.00
2017-10-16T14:11:20.054Z,2892.00
2017-10-16T14:12:20.099Z,2876.00
2017-10-16T14:14:13.106Z,2864.00
2017-10-16T14:15:13.169Z,2848.00
2017-10-16T14:17:06.189Z,2824.00
2017-10-16T14:18:06.238Z,2808.00
2017-10-16T14:19:59.263Z,2784.00
2017-10-16T14:20:59.310Z,2776.00
2017-10-16T14:22:52.313Z,2756.00
2017-10-16T14:23:52.384Z,2748.00
2017-10-16T14:25:45.412Z,2736.00
2017-10-16T14:26:45.463Z,2728.00
2017-10-16T14:28:38.462Z,2708.00
2017-10-16T14:29:38.531Z,2700.00
2017-10-16T14:31:31.558Z,2680.00
2017-10-16T14:32:31.606Z,2668.00
2017-10-16T14:34:24.610Z,2644.00
2017-10-16T14:35:24.675Z,2632.00
2017-10-16T14:37:17.701Z,2600.00
2017-10-16T14:38:17.754Z,2584.00
2017-10-16T14:40:10.799Z,2552.00
2017-10-16T14:41:10.809Z,2536.00
2017-10-16T14:43:03.807Z,2504.00
2017-10-16T14:44:03.876Z,2492.00
2017-10-16T14:45:56.911Z,2460.00
2017-10-16T14:46:56.959Z,2444.00
2017-10-16T14:48:49.981Z,2412.00
2017-10-16T14:49:50.038Z,2400.00
2017-10-16T14:51:43.061Z,2368.00
2017-10-16T14:52:43.106Z,2356.00
2017-10-16T14:54:36.103Z,2328.00
2017-10-16T14:55:36.170Z,2316.00
2017-10-16T14:57:29.189Z,2288.00
2017-10-16T14:58:29.235Z,2272.00
2017-10-16T15:00:22.263Z,2244.00
2017-10-16T15:01:22.305Z,2232.00
2017-10-16T15:03:15.303Z,2200.00
2017-10-16T15:04:15.372Z,2184.00
2017-10-16T15:06:08.397Z,2152.00
2017-10-16T15:07:08.446Z,2136.00
2017-10-16T15:09:01.455Z,2104.00
2017-10-16T15:10:01.524Z,2092.00
2017-10-16T15:11:54.549Z,2068.00
2017-10-16T15:12:54.597Z,2048.00
2017-10-16T15:14:47.604Z,2020.00
2017-10-16T15:15:47.665Z,2004.00
2017-10-16T15:17:40.720Z,1972.00
2017-10-16T15:18:40.775Z,1956.00
2017-10-16T15:20:33.766Z,1928.00
2017-10-16T15:21:33.816Z,1908.00
2017-10-16T15:23:26.814Z,1876.00
2017-10-16T15:24:26.882Z,1860.00
2017-10-16T15:26:19.903Z,1820.00
2017-10-16T15:27:19.951Z,1800.00
2017-10-16T15:29:12.951Z,1764.00
2017-10-16T15:30:13.021Z,1744.00
2017-10-16T15:32:06.047Z,1704.00
2017-10-16T15:33:06.096Z,1684.00
2017-10-16T15:34:59.095Z,1640.00
2017-10-16T15:35:59.169Z,1620.00
2017-10-16T15:37:52.184Z,1580.00
2017-10-16T15:38:52.231Z,1560.00
2017-10-16T15:40:45.253Z,1516.00
2017-10-16T15:41:45.297Z,1492.00
2017-10-16T15:43:38.305Z,1444.00
2017-10-16T15:44:38.375Z,1420.00
2017-10-16T15:46:31.400Z,1372.00
2017-10-16T15:47:31.448Z,1348.00
2017-10-16T15:49:24.446Z,1296.00
2017-10-16T15:50:24.515Z,1272.00
2017-10-16T15:52:17.535Z,1220.00
2017-10-16T15:53:17.581Z,1196.00
2017-10-16T15:55:10.589Z,1144.00
2017-10-16T15:56:10.658Z,1116.00
2017-10-16T15:58:03.677Z,1060.00
2017-10-16T15:59:03.723Z,1028.00
2017-10-16T16:00:56.750Z,972.00
2017-10-16T16:01:56.791Z,944.00
2017-10-16T16:03:49.796Z,888.00
2017-10-16T16:04:49.857Z,856.00
2017-10-16T16:06:42.874Z,804.00
2017-10-16T16:07:42.923Z,780.00
2017-10-16T16:09:35.937Z,724.00
2017-10-16T16:10:35.989Z,700.00
2017-10-16T16:12:29.012Z,652.00
2017-10-16T16:13:29.057Z,624.00
2017-10-16T16:15:22.061Z,568.00
2017-10-16T16:16:22.128Z,540.00
2017-10-16T16:18:15.154Z,488.00
2017-10-16T16:19:15.194Z,460.00
2017-10-16T16:21:08.219Z,408.00
2017-10-16T16:22:08.279Z,380.00
2017-10-16T16:24:01.267Z,332.00
2017-10-16T16:25:01.335Z,312.00
2017-10-16T16:26:54.369Z,272.00
2017-10-16T16:27:54.400Z,248.00
2017-10-16T16:29:47.398Z,216.00
2017-10-16T16:30:47.464Z,200.00
2017-10-16T16:32:40.486Z,172.00
2017-10-16T16:33:40.531Z,156.00
2017-10-16T16:35:33.529Z,128.00
2017-10-16T16:36:33.597Z,120.00
2017-10-16T16:38:26.616Z,100.00
2017-10-16T16:39:26.663Z,88.00
2017-10-16T16:41:19.694Z,68.00
2017-10-16T16:42:19.727Z,60.00
2017-10-16T16:44:12.723Z,48.00
2017-10-16T16:45:12.789Z,40.00
2017-10-16T16:47:05.845Z,32.00
2017-10-16T16:48:05.854Z,28.00
2017-10-16T16:49:58.850Z,20.00
2017-10-16T16:50:58.918Z,16.00
2017-10-16T16:52:51.937Z,12.00
2017-10-16T16:53:51.984Z,12.00
2017-10-16T16:55:44.982Z,8.00
2017-10-16T16:56:45.049Z,4.00
2017-10-16T16:58:38.081Z,4.00
2017-10-16T16:59:38.128Z,4.00
2017-10-16T17:01:31.145Z,0.00
2017-10-16T17:02:31.192Z,0.00
2017-10-16T17:04:24.186Z,0.00
2017-10-16T17:05:24.253Z,0.00
2017-10-16T17:07:17.272Z,0.00
2017-10-16T17:08:17.323Z,0.00
2017-10-16T17:10:10.313Z,0.00
2017-10-16T17:11:10.380Z,0.00
2017-10-16T17:13:03.399Z,0.00
2017-10-16T17:14:03.444Z,0.00
2017-10-16T17:15:56.444Z,0.00
2017-10-16T17:16:56.526Z,0.00
2017-10-16T17:18:49.542Z,0.00
2017-10-16T17:19:49.585Z,0.00
2017-10-16T17:21:42.608Z,0.00
2017-10-16T17:22:42.653Z,0.00
2017-10-16T17:24:35.650Z,0.00
2017-10-16T17:25:35.718Z,0.00
2017-10-16T17:27:28.734Z,0.00
2017-10-16T17:28:28.794Z,0.00
2017-10-16T17:30:21.786Z,0.00
2017-10-16T17:31:21.852Z,0.00
2017-10-16T17:33:14.868Z,0.00
2017-10-16T17:34:14.913Z,0.00
2017-10-16T17:36:07.909Z,0.00
2017-10-16T17:37:07.974Z,0.00
2017-10-16T17:39:01.027Z,0.00
2017-10-16T17:40:01.036Z,0.00
2017-10-16T17:41:54.559Z,0.00
2017-10-16T17:42:54.607Z,0.00
2017-10-16T17:44:47.603Z,0.00
2017-10-16T17:45:47.674Z,0.00
2017-10-16T17:47:40.722Z,0.00
2017-10-16T17:48:40.763Z,0.00
2017-10-16T17:50:33.731Z,0.00
2017-10-16T17:51:33.793Z,0.00
2017-10-16T17:53:26.809Z,0.00
2017-10-16T17:54:26.859Z,0.00
2017-10-16T17:56:19.853Z,0.00
2017-10-16T17:57:19.918Z,0.00
2017-10-16T17:59:12.938Z,0.00
2017-10-16T18:00:12.980Z,0.00
2017-10-16T18:02:05.997Z,0.00
2017-10-16T18:03:06.040Z,0.00
2017-10-16T18:04:59.040Z,0.00
2017-10-16T18:05:59.149Z,0.00
2017-10-16T18:07:52.166Z,0.00
2017-10-16T18:08:52.180Z,0.00
2017-10-16T18:10:45.173Z,0.00
2017-10-16T18:11:45.232Z,0.00
2017-10-16T18:13:38.248Z,0.00
2017-10-16T18:14:38.306Z,0.00
2017-10-16T18:16:31.294Z,0.00
2017-10-16T18:17:31.363Z,0.00